Terminal Aerodrome Forecast
Issued by NWS Sioux Falls, SD

Home | Current Version | Previous Version | Text Only | Print | Product List | Glossary Off
Versions: 1 2 3 4 5 6 7 8 9 10 11 12 13

000
FTUS43 KFSD 011724
TAFFSD
TAF
KFSD 011724Z 0118/0218 28009KT P6SM SCT035
      TEMPO 0118/0120 BKN035
     FM020000 29006KT P6SM SKC
     FM020200 VRB03KT P6SM SKC
     FM021500 17008KT P6SM SKC=

USA.gov is the U.S. government's official web portal to all federal, state and local government web resources and services.